Camiri, Bolivia
Current Conditions -  °F | °C
As of 7:00 PM on Sunday 21 Dec 2014 (Local Time) from SLCA Reporting Station
Broken Clouds Broken Clouds  
Wind Chill: 77°   Ceiling: 3600
Heat Index: 79°   Visibility: 6mi
Dew Point: 64°   Wind: 0mph
Humidity: 65%   Direction: NA
Pressure: 29.8"   Gusts: NA
Location:  20.05°S, 63.52°W
Report Text: SLCA 212300Z 00000KT 9999 BKN036 25/18 Q1009
Loading
Personal Weather Stations






























Interactive Weather Map New forecast layout! Learn more

10-Day Weather Forecast

Advertisements
Track Severe Weather on mobile